Terminal Aerodrome Forecast
Issued by NWS

Home | Current Version | Previous Version | Text Only | Print | Product List | Glossary On
Versions: 1 2 3 4 5 6 7 8 9 10 11 12 13 14
958
FTUS41 KLWX 101728
TAFMTN
TAF
KMTN 101728Z 1018/1118 26016G23KT P6SM SCT040 BKN180
     FM101900 28012KT P6SM BKN090
     FM110900 28013G22KT P6SM SCT050=

USA.gov is the U.S. government's official web portal to all federal, state and local government web resources and services.